Craig Beach, Ohio
Current Conditions -  °F | °C
As of 6:37 PM on Wednesday 22 Oct 2014 (Local Time) from KPOV Reporting Station
Overcast Overcast  
Wind Chill: 46°   Ceiling: 3200
Heat Index: 48°   Visibility: 10mi
Dew Point: 40°   Wind: 5mph
Humidity: 75%   Direction: 320°NW
Pressure: 30.23"   Gusts: NA
Location:  41.099°N, 80.9784°W
Report Text: KPOV 222237Z AUTO 32004KT 10SM OVC032 09/04 A3023 RMK AO2 T00870044
Loading
Personal Weather Stations






























Interactive Weather Map
Tropical Storm Tracking
New forecast layout! Learn more

10-Day Weather Forecast

Advertisements
Track Severe Weather on mobile